Time;durP1;ratioP1;P1;durP2;ratioP2;P2;SDS_P1;SDS_P2;PMS_P1;PMS_P2;Temp;Humidity;BMP_temperature;BMP_pressure;BME280_temperature;BME280_humidity;BME280_pressure;Samples;Min_cycle;Max_cycle;Signal;HPM_P1;HPM_P2
2021/03/27 00:01:09;;;;;;;7.17;4.60;;;9.60;90.20;;;;;;5056048;28;20116;-85
2021/03/27 00:03:51;;;;;;;6.63;4.32;;;9.50;90.20;;;;;;5056151;28;20074;-86
2021/03/27 00:06:33;;;;;;;8.83;4.50;;;9.40;90.30;;;;;;5056465;28;20071;-85
2021/03/27 00:09:07;;;;;;;7.27;4.50;;;9.20;90.80;;;;;;5055886;28;20063;-85
2021/03/27 00:11:52;;;;;;;11.17;4.77;;;9.20;91.30;;;;;;5055623;28;20119;-85
2021/03/27 00:14:35;;;;;;;9.40;5.10;;;9.20;91.50;;;;;;5055985;28;20033;-85
2021/03/27 00:17:44;;;;;;;7.93;5.00;;;9.20;91.50;;;;;;5056093;28;20385;-85
2021/03/27 00:20:34;;;;;;;8.98;5.40;;;9.00;92.50;;;;;;5054135;28;20032;-86
2021/03/27 00:23:07;;;;;;;7.97;5.70;;;9.00;92.90;;;;;;5055487;28;20056;-87
2021/03/27 00:25:39;;;;;;;8.13;5.20;;;9.00;92.80;;;;;;5055718;28;20028;-85
2021/03/27 00:28:20;;;;;;;9.37;4.50;;;8.90;92.60;;;;;;5055843;28;20028;-85
2021/03/27 00:30:59;;;;;;;6.67;3.77;;;8.60;92.10;;;;;;5055651;28;20111;-87
2021/03/27 00:33:30;;;;;;;7.30;3.80;;;8.50;91.40;;;;;;5056188;28;20588;-85
2021/03/27 00:36:13;;;;;;;7.20;4.13;;;8.50;91.90;;;;;;5055998;28;20025;-85
2021/03/27 00:38:44;;;;;;;9.30;5.00;;;8.40;92.00;;;;;;5056107;28;20397;-84
2021/03/27 00:41:19;;;;;;;5.43;3.20;;;8.50;91.30;;;;;;5055963;28;20024;-86
2021/03/27 00:43:54;;;;;;;6.63;3.83;;;8.40;91.20;;;;;;5056072;28;20021;-85
2021/03/27 00:46:21;;;;;;;4.83;3.57;;;8.20;91.80;;;;;;5055757;28;20442;-85
2021/03/27 00:48:53;;;;;;;8.03;4.60;;;8.10;92.60;;;;;;5055861;28;20059;-85
2021/03/27 00:51:26;;;;;;;6.90;4.57;;;8.20;92.80;;;;;;5055313;28;20090;-85
2021/03/27 00:54:07;;;;;;;6.83;4.67;;;8.20;92.40;;;;;;5055512;28;20032;-85
2021/03/27 00:57:01;;;;;;;10.17;6.00;;;8.10;93.00;;;;;;5055083;28;20116;-85
2021/03/27 00:59:28;;;;;;;9.77;5.63;;;8.00;93.30;;;;;;5049974;28;20033;-85
2021/03/27 01:01:56;;;;;;;7.93;5.73;;;8.00;93.60;;;;;;5055163;28;20025;-85
2021/03/27 01:04:27;;;;;;;9.00;6.50;;;8.00;93.50;;;;;;5055559;28;20070;-85
2021/03/27 01:07:00;;;;;;;9.87;6.70;;;7.70;93.80;;;;;;5055281;28;20149;-85
2021/03/27 01:09:40;;;;;;;9.57;6.70;;;7.90;94.60;;;;;;5054976;28;20074;-85
2021/03/27 01:12:11;;;;;;;9.30;6.60;;;8.00;94.00;;;;;;5054959;28;20051;-85
2021/03/27 01:14:47;;;;;;;9.57;6.87;;;8.10;94.00;;;;;;5055398;28;20020;-87
2021/03/27 01:17:19;;;;;;;10.03;6.30;;;8.10;93.90;;;;;;5055270;28;20021;-85
2021/03/27 01:20:01;;;;;;;8.87;5.83;;;8.00;93.80;;;;;;5055300;28;20021;-85
2021/03/27 01:22:28;;;;;;;9.97;5.87;;;7.90;93.50;;;;;;5055234;28;20027;-85
2021/03/27 01:24:59;;;;;;;8.77;4.87;;;7.80;93.40;;;;;;5067495;22;20009;-84
2021/03/27 01:28:14;;;;;;;12.33;5.53;;;7.80;93.70;;;;;;5040346;28;20127;-83
2021/03/27 01:30:45;;;;;;;8.70;4.63;;;7.80;93.80;;;;;;5017552;28;20051;-84
2021/03/27 01:33:16;;;;;;;10.13;4.43;;;7.70;93.30;;;;;;5063266;28;20021;-83
2021/03/27 01:35:46;;;;;;;8.13;4.20;;;7.80;93.40;;;;;;5068413;28;20090;-85
2021/03/27 01:38:19;;;;;;;8.47;3.90;;;7.80;93.20;;;;;;5061420;28;20111;-84
2021/03/27 01:41:06;;;;;;;10.50;4.93;;;7.80;92.90;;;;;;5060944;28;20021;-84
2021/03/27 01:43:53;;;;;;;8.33;4.27;;;7.90;93.50;;;;;;5062960;28;20077;-84
2021/03/27 01:46:30;;;;;;;8.27;4.60;;;7.80;93.10;;;;;;5062258;28;20024;-83
2021/03/27 01:49:15;;;;;;;10.97;4.57;;;7.80;93.20;;;;;;5061885;28;20031;-84
2021/03/27 01:51:59;;;;;;;8.17;4.10;;;7.80;93.60;;;;;;5079110;28;20475;-84
2021/03/27 01:54:56;;;;;;;7.53;3.70;;;7.90;93.40;;;;;;5077098;28;20020;-84
2021/03/27 01:57:41;;;;;;;9.93;3.70;;;7.80;93.20;;;;;;5058542;28;20066;-84
2021/03/27 02:00:14;;;;;;;8.27;3.67;;;7.70;93.10;;;;;;5081079;28;20021;-84
2021/03/27 02:02:42;;;;;;;9.87;4.57;;;7.80;93.60;;;;;;5066926;28;20032;-84
2021/03/27 02:05:15;;;;;;;9.43;3.50;;;7.90;93.30;;;;;;5064486;28;20024;-83
2021/03/27 02:07:49;;;;;;;5.60;2.80;;;8.00;93.30;;;;;;5065199;28;20485;-84
2021/03/27 02:10:40;;;;;;;7.73;3.23;;;7.80;93.20;;;;;;5083136;28;20103;-84
2021/03/27 02:13:29;;;;;;;5.33;2.30;;;7.80;93.80;;;;;;5065722;28;20031;-84
2021/03/27 02:16:04;;;;;;;7.85;2.10;;;7.90;94.00;;;;;;5065222;28;20021;-84
2021/03/27 02:18:36;;;;;;;7.67;2.23;;;8.00;94.00;;;;;;5083715;28;20095;-84
2021/03/27 02:21:32;;;;;;;5.30;1.87;;;8.00;94.20;;;;;;5065421;28;20031;-84
2021/03/27 02:24:19;;;;;;;6.47;1.97;;;7.90;94.00;;;;;;5064437;28;20391;-84
2021/03/27 02:27:05;;;;;;;4.77;1.93;;;7.90;93.90;;;;;;5064317;28;20033;-84
2021/03/27 02:30:09;;;;;;;4.30;1.60;;;7.90;94.50;;;;;;5080911;28;20030;-84
2021/03/27 02:32:44;;;;;;;4.37;1.80;;;7.80;94.20;;;;;;5081855;28;20020;-84
2021/03/27 02:35:15;;;;;;;4.80;1.60;;;7.70;94.50;;;;;;5063232;28;20025;-83
2021/03/27 02:37:55;;;;;;;7.80;1.80;;;7.60;94.00;;;;;;5064308;28;20663;-83
2021/03/27 02:40:28;;;;;;;4.73;1.80;;;7.70;94.30;;;;;;5062840;28;20082;-84
2021/03/27 02:43:02;;;;;;;7.97;1.70;;;7.80;94.20;;;;;;5062603;28;20073;-84
2021/03/27 02:45:37;;;;;;;8.50;1.93;;;7.80;94.10;;;;;;5082235;28;20108;-83
2021/03/27 02:48:29;;;;;;;5.00;1.43;;;7.80;94.00;;;;;;5064104;28;20047;-84
2021/03/27 02:51:21;;;;;;;7.60;1.70;;;7.70;93.90;;;;;;5063363;28;20032;-84
2021/03/27 02:53:58;;;;;;;8.57;1.80;;;7.60;93.90;;;;;;5080176;28;20020;-82
2021/03/27 02:56:29;;;;;;;6.83;1.80;;;7.80;93.80;;;;;;5062951;28;20058;-83
2021/03/27 02:59:12;;;;;;;6.30;1.83;;;7.80;93.60;;;;;;5080874;28;20024;-83
2021/03/27 03:01:51;;;;;;;8.53;2.17;;;7.70;93.30;;;;;;5063114;28;20071;-85
2021/03/27 03:04:43;;;;;;;7.10;2.13;;;7.70;93.70;;;;;;5080662;28;20138;-84
2021/03/27 03:07:25;;;;;;;9.77;2.43;;;7.70;93.50;;;;;;5075671;28;20047;-84
2021/03/27 03:10:03;;;;;;;6.83;2.10;;;7.60;93.60;;;;;;5079798;28;20025;-84
2021/03/27 03:12:43;;;;;;;6.73;1.93;;;7.70;93.50;;;;;;5080792;28;20126;-84
2021/03/27 03:15:17;;;;;;;7.00;2.30;;;7.70;93.20;;;;;;5080656;28;20021;-85
2021/03/27 03:18:24;;;;;;;7.20;2.13;;;7.70;93.10;;;;;;5079844;28;20021;-85
2021/03/27 03:21:26;;;;;;;10.93;2.43;;;7.60;93.00;;;;;;5041670;28;20037;-84
2021/03/27 03:23:55;;;;;;;6.50;1.97;;;7.60;93.00;;;;;;5061423;28;20101;-84
2021/03/27 03:26:31;;;;;;;10.30;2.53;;;7.70;93.00;;;;;;5078317;28;20035;-84
2021/03/27 03:29:16;;;;;;;9.70;2.00;;;7.70;93.00;;;;;;5077208;28;20066;-85
2021/03/27 03:32:16;;;;;;;9.10;3.03;;;7.80;92.90;;;;;;5061568;28;20035;-84
2021/03/27 03:35:02;;;;;;;6.23;1.93;;;7.70;92.60;;;;;;5059686;28;20028;-84
2021/03/27 03:37:49;;;;;;;7.37;1.90;;;7.70;92.50;;;;;;5079306;28;20576;-84
2021/03/27 03:40:52;;;;;;;10.10;2.53;;;7.70;92.40;;;;;;5078851;28;20076;-84
2021/03/27 03:43:33;;;;;;;7.50;2.00;;;7.80;92.50;;;;;;5061001;28;20021;-84
2021/03/27 03:46:18;;;;;;;9.97;2.30;;;7.70;92.50;;;;;;5061558;28;20038;-84
2021/03/27 03:49:18;;;;;;;10.43;2.20;;;7.60;92.30;;;;;;5079394;28;20032;-84
2021/03/27 03:51:47;;;;;;;6.53;2.10;;;7.60;92.40;;;;;;5061661;28;20123;-85
2021/03/27 03:54:56;;;;;;;11.45;2.65;;;7.60;92.30;;;;;;5079308;28;20066;-85
2021/03/27 03:57:30;;;;;;;8.32;2.42;;;7.70;92.40;;;;;;5060643;28;20181;-85
2021/03/27 04:00:31;;;;;;;10.33;1.90;;;7.70;92.30;;;;;;5078766;28;20408;-85
2021/03/27 04:02:56;;;;;;;13.07;2.53;;;7.70;92.40;;;;;;5079605;28;20060;-85
2021/03/27 04:05:31;;;;;;;7.27;2.27;;;7.70;92.40;;;;;;5079492;28;20024;-85
2021/03/27 04:08:08;;;;;;;9.13;2.33;;;7.70;92.30;;;;;;5079252;28;20032;-85
2021/03/27 04:10:36;;;;;;;9.10;2.73;;;7.70;92.40;;;;;;5060258;28;20123;-85
2021/03/27 04:13:19;;;;;;;9.67;2.73;;;7.60;92.60;;;;;;5060984;28;20032;-85
2021/03/27 04:15:56;;;;;;;10.30;2.60;;;7.60;92.50;;;;;;5078673;28;20060;-85
2021/03/27 04:18:36;;;;;;;10.83;2.70;;;7.60;92.60;;;;;;5078802;28;20477;-85
2021/03/27 04:21:10;;;;;;;;;;;7.60;92.70;;;;;;5061265;28;20031;-85
2021/03/27 04:23:39;;;;;;;9.67;3.20;;;7.60;92.10;;;;;;5078690;28;19904;-85
2021/03/27 04:26:35;;;;;;;10.48;3.28;;;7.50;92.30;;;;;;5060948;28;20054;-85
2021/03/27 04:29:32;;;;;;;12.30;2.90;;;7.60;92.20;;;;;;5060079;28;20035;-85
2021/03/27 04:32:38;;;;;;;15.90;2.90;;;7.60;92.10;;;;;;5060602;28;20036;-85
2021/03/27 04:35:25;;;;;;;12.27;2.97;;;7.60;92.00;;;;;;5076578;28;20521;-85
2021/03/27 04:38:18;;;;;;;7.03;2.70;;;7.60;92.00;;;;;;5079083;28;20036;-85
2021/03/27 04:40:58;;;;;;;11.07;2.73;;;7.60;91.80;;;;;;5077565;28;20025;-86
2021/03/27 04:43:31;;;;;;;10.30;2.67;;;7.60;91.70;;;;;;5060116;28;20024;-85
2021/03/27 04:46:20;;;;;;;9.57;2.90;;;7.60;91.80;;;;;;5060479;28;20388;-85
2021/03/27 04:49:24;;;;;;;11.63;3.17;;;7.50;91.60;;;;;;5078113;28;20075;-85
2021/03/27 04:52:03;;;;;;;9.60;3.13;;;7.50;91.70;;;;;;5078615;28;20044;-85
2021/03/27 04:54:29;;;;;;;13.43;4.28;;;7.50;92.00;;;;;;5060605;28;20089;-85
2021/03/27 04:57:14;;;;;;;16.43;3.90;;;7.50;91.90;;;;;;5059623;28;20048;-85
2021/03/27 05:00:00;;;;;;;11.17;3.60;;;7.50;91.80;;;;;;5077016;28;20024;-85
2021/03/27 05:02:38;;;;;;;13.23;3.53;;;7.50;92.10;;;;;;5078581;28;20017;-85
2021/03/27 05:05:16;;;;;;;14.00;3.73;;;7.50;91.80;;;;;;5060544;28;20035;-85
2021/03/27 05:07:59;;;;;;;11.60;2.70;;;7.50;91.70;;;;;;5077771;28;20029;-85
2021/03/27 05:11:14;;;;;;;13.20;2.53;;;7.50;91.60;;;;;;5059652;28;20055;-85
2021/03/27 05:13:53;;;;;;;12.67;3.13;;;7.50;91.40;;;;;;5075124;28;20455;-85
2021/03/27 05:16:39;;;;;;;14.73;3.25;;;7.50;91.60;;;;;;5077949;28;20112;-85
2021/03/27 05:19:11;;;;;;;15.73;3.73;;;7.60;91.60;;;;;;5076433;28;20528;-85
2021/03/27 05:21:37;;;;;;;12.33;3.60;;;7.50;91.50;;;;;;5060329;28;20035;-85
2021/03/27 05:24:22;;;;;;;11.40;3.90;;;7.50;91.70;;;;;;5060779;28;20024;-85
2021/03/27 05:27:09;;;;;;;18.30;5.50;;;7.50;91.60;;;;;;5076343;28;20040;-85
2021/03/27 05:29:42;;;;;;;9.87;3.43;;;7.50;91.50;;;;;;5056890;28;20392;-84
2021/03/27 05:32:08;;;;;;;12.60;3.83;;;7.50;91.70;;;;;;5057212;28;20086;-84
2021/03/27 05:34:40;;;;;;;15.27;4.50;;;7.50;91.60;;;;;;5075583;28;20462;-83
2021/03/27 05:37:24;;;;;;;13.20;3.27;;;7.50;91.20;;;;;;5058155;28;20021;-83
2021/03/27 05:40:10;;;;;;;15.10;4.23;;;7.50;91.30;;;;;;5057279;28;20025;-82
2021/03/27 05:43:00;;;;;;;11.30;3.60;;;7.60;91.20;;;;;;5057559;28;20503;-83
2021/03/27 05:45:41;;;;;;;12.70;2.70;;;7.50;91.10;;;;;;5056793;28;20025;-84
2021/03/27 05:48:30;;;;;;;16.00;4.20;;;7.40;91.50;;;;;;5055853;28;20644;-84
2021/03/27 05:50:58;;;;;;;9.30;1.58;;;7.30;91.80;;;;;;5055437;28;20531;-83
2021/03/27 05:53:40;;;;;;;11.70;2.37;;;7.40;92.30;;;;;;5073854;28;20439;-84
2021/03/27 05:56:44;;;;;;;13.13;2.90;;;7.40;92.60;;;;;;5056407;28;20481;-82
2021/03/27 05:59:20;;;;;;;11.23;2.50;;;7.40;92.60;;;;;;5075946;28;20482;-83
2021/03/27 06:02:05;;;;;;;13.37;2.40;;;7.40;92.80;;;;;;5057962;28;20544;-82
2021/03/27 06:05:00;;;;;;;11.23;2.73;;;7.40;92.50;;;;;;5076620;28;20025;-83
2021/03/27 06:07:55;;;;;;;11.40;2.70;;;7.50;92.10;;;;;;5058122;28;20036;-83
2021/03/27 06:10:34;;;;;;;17.43;2.90;;;7.50;92.10;;;;;;5057455;28;20519;-83
2021/03/27 06:13:12;;;;;;;;;;;7.50;91.80;;;;;;5075083;28;20491;-83
2021/03/27 06:16:14;;;;;;;8.17;2.50;;;7.50;91.80;;;;;;5057809;28;19904;-83
2021/03/27 06:19:15;;;;;;;10.83;2.50;;;7.50;91.70;;;;;;5059921;28;20092;-83
2021/03/27 06:22:00;;;;;;;10.60;3.00;;;7.40;91.70;;;;;;5080274;28;20025;-82
2021/03/27 06:24:48;;;;;;;10.53;2.73;;;7.50;91.90;;;;;;5080158;28;20469;-83
2021/03/27 06:27:50;;;;;;;14.33;3.33;;;7.50;91.60;;;;;;5079921;28;20068;-82
2021/03/27 06:30:45;;;;;;;10.60;2.63;;;7.60;91.70;;;;;;5061082;28;20039;-82
2021/03/27 06:33:35;;;;;;;14.60;4.73;;;7.60;91.30;;;;;;5071980;28;20040;-83
2021/03/27 06:36:40;;;;;;;15.73;2.47;;;7.60;91.20;;;;;;5059619;28;20021;-82
2021/03/27 06:39:25;;;;;;;11.80;3.07;;;7.60;91.50;;;;;;5077034;28;20509;-83
2021/03/27 06:42:03;;;;;;;11.83;2.80;;;7.60;91.30;;;;;;5079710;28;20024;-83
2021/03/27 06:44:53;;;;;;;17.70;3.38;;;7.60;91.40;;;;;;5061781;28;20025;-83
2021/03/27 06:47:24;;;;;;;;;;;7.60;91.20;;;;;;5062243;28;20032;-83
2021/03/27 06:50:14;;;;;;;12.13;3.60;;;7.70;91.30;;;;;;5062369;28;19909;-83
2021/03/27 06:53:14;;;;;;;13.40;3.50;;;7.60;92.20;;;;;;5064064;28;20029;-82
2021/03/27 06:55:56;;;;;;;12.23;2.70;;;7.50;92.30;;;;;;5064098;28;20065;-84
2021/03/27 06:58:40;;;;;;;14.67;2.73;;;7.50;92.70;;;;;;5066180;28;20070;-83
2021/03/27 07:01:35;;;;;;;13.00;2.60;;;7.40;93.00;;;;;;5062939;28;20075;-83
2021/03/27 07:04:39;;;;;;;14.47;3.10;;;7.50;93.10;;;;;;5082357;28;20491;-83
2021/03/27 07:07:16;;;;;;;15.07;2.50;;;7.30;93.30;;;;;;5083770;28;20396;-83
2021/03/27 07:10:03;;;;;;;8.27;2.33;;;7.20;93.40;;;;;;5080412;28;20099;-82
2021/03/27 07:12:46;;;;;;;9.97;3.27;;;7.20;93.40;;;;;;5061949;28;20078;-83
2021/03/27 07:15:30;;;;;;;14.53;3.30;;;7.20;92.90;;;;;;5080391;28;20052;-82
2021/03/27 07:18:33;;;;;;;8.70;2.60;;;7.20;93.30;;;;;;5078675;28;20082;-83
2021/03/27 07:21:26;;;;;;;4.53;1.43;;;6.60;94.80;;;;;;5060168;28;20031;-83
2021/03/27 07:24:23;;;;;;;7.00;1.50;;;5.90;93.70;;;;;;5061675;28;20048;-82
2021/03/27 07:27:14;;;;;;;3.20;0.80;;;5.80;95.50;;;;;;5061882;28;20085;-83
2021/03/27 07:30:00;;;;;;;9.17;2.73;;;5.40;94.70;;;;;;5078507;28;20095;-84
2021/03/27 07:32:36;;;;;;;5.57;1.57;;;5.50;95.60;;;;;;5062826;28;20127;-84
2021/03/27 07:35:24;;;;;;;3.80;1.20;;;5.30;95.10;;;;;;5060879;28;20029;-82
2021/03/27 07:38:08;;;;;;;8.90;1.40;;;5.30;95.10;;;;;;5059727;28;20556;-83
2021/03/27 07:40:57;;;;;;;8.53;1.70;;;5.30;94.80;;;;;;5059363;28;20024;-84
2021/03/27 07:43:26;;;;;;;6.93;1.43;;;5.30;95.20;;;;;;5059205;28;20021;-83
2021/03/27 07:45:58;;;;;;;5.85;1.30;;;5.50;94.90;;;;;;5058233;28;20030;-84
2021/03/27 07:48:58;;;;;;;9.03;1.50;;;5.50;94.50;;;;;;5078125;28;20039;-84
2021/03/27 07:52:08;;;;;;;7.00;1.80;;;5.60;94.60;;;;;;5059708;28;20048;-86
2021/03/27 07:54:59;;;;;;;9.50;2.47;;;5.60;95.00;;;;;;5018752;28;20030;-84
2021/03/27 07:57:58;;;;;;;7.13;1.73;;;5.80;95.30;;;;;;5018929;28;20030;-85
2021/03/27 08:00:47;;;;;;;;;;;5.90;94.20;;;;;;5071431;28;20045;-84
2021/03/27 08:03:53;;;;;;;6.35;1.55;;;5.70;94.10;;;;;;5059632;28;19904;-84
2021/03/27 08:06:31;;;;;;;9.53;2.00;;;5.80;94.00;;;;;;5060381;28;20048;-83
2021/03/27 08:09:13;;;;;;;7.75;2.28;;;5.80;94.00;;;;;;5058275;28;20046;-84
2021/03/27 08:11:45;;;;;;;6.67;1.90;;;5.80;93.70;;;;;;5061091;28;20452;-84
2021/03/27 08:14:29;;;;;;;5.43;1.60;;;5.90;93.90;;;;;;5060474;28;20029;-85
2021/03/27 08:16:55;;;;;;;6.97;1.87;;;6.00;93.80;;;;;;5058435;28;20028;-83
2021/03/27 08:19:41;;;;;;;8.07;2.00;;;6.00;93.40;;;;;;5076127;28;20032;-85
2021/03/27 08:22:17;;;;;;;6.83;1.73;;;6.20;93.80;;;;;;5058390;28;20021;-84
2021/03/27 08:24:55;;;;;;;7.87;2.00;;;6.30;93.70;;;;;;5058401;28;20074;-83
2021/03/27 08:27:36;;;;;;;7.90;2.00;;;6.30;94.00;;;;;;5075869;28;20029;-85
2021/03/27 08:30:39;;;;;;;7.87;2.20;;;6.40;94.30;;;;;;5057574;28;20035;-84
2021/03/27 08:33:43;;;;;;;7.87;2.00;;;6.50;94.30;;;;;;5058144;28;20020;-83
2021/03/27 08:36:23;;;;;;;6.93;2.53;;;6.60;94.20;;;;;;5057850;28;20063;-85
2021/03/27 08:39:23;;;;;;;8.67;2.90;;;6.70;93.90;;;;;;5057943;28;20544;-83
2021/03/27 08:42:15;;;;;;;;;;;6.70;93.70;;;;;;5058557;28;20025;-85
2021/03/27 08:45:05;;;;;;;11.97;4.37;;;6.80;94.20;;;;;;5054136;28;20463;-85
2021/03/27 08:47:50;;;;;;;13.77;4.70;;;6.90;94.10;;;;;;5058292;28;20024;-85
2021/03/27 08:50:39;;;;;;;16.87;5.13;;;7.00;93.90;;;;;;5076025;28;20029;-85
2021/03/27 08:53:34;;;;;;;10.95;3.60;;;7.10;94.00;;;;;;5075339;28;20112;-84
2021/03/27 08:56:12;;;;;;;10.43;2.83;;;7.00;93.40;;;;;;5057711;28;20033;-83
2021/03/27 08:58:46;;;;;;;13.17;3.47;;;7.00;93.20;;;;;;5058334;28;20207;-85
2021/03/27 09:01:31;;;;;;;12.03;2.60;;;7.00;93.30;;;;;;5057614;28;20029;-85
2021/03/27 09:04:15;;;;;;;8.60;2.50;;;7.10;93.20;;;;;;5057266;28;20040;-83
2021/03/27 09:07:08;;;;;;;9.20;2.53;;;7.20;92.90;;;;;;5057932;28;20038;-83
2021/03/27 09:09:57;;;;;;;11.07;2.93;;;7.20;92.10;;;;;;5074888;28;20365;-84
2021/03/27 09:12:45;;;;;;;10.13;3.03;;;7.30;92.20;;;;;;5074685;28;20427;-84
2021/03/27 09:15:32;;;;;;;15.90;3.60;;;7.40;92.00;;;;;;5074577;28;20370;-83
2021/03/27 09:18:43;;;;;;;12.33;3.10;;;7.50;91.80;;;;;;5056961;28;20033;-85
2021/03/27 09:21:27;;;;;;;14.20;4.30;;;7.40;92.20;;;;;;5054045;28;20040;-84
2021/03/27 09:24:15;;;;;;;17.57;5.10;;;7.50;92.30;;;;;;5056853;28;20025;-84
2021/03/27 09:26:50;;;;;;;13.40;3.43;;;7.50;92.60;;;;;;5057277;28;20029;-85
2021/03/27 09:29:41;;;;;;;12.97;2.63;;;7.50;91.50;;;;;;5056343;28;20017;-84
2021/03/27 09:32:28;;;;;;;15.07;3.67;;;7.50;90.60;;;;;;5056216;28;20028;-84
2021/03/27 09:35:00;;;;;;;16.90;3.23;;;7.50;89.00;;;;;;5056420;28;20028;-84
2021/03/27 09:37:58;;;;;;;13.10;3.10;;;7.60;90.10;;;;;;5057237;28;20020;-83
2021/03/27 09:40:55;;;;;;;11.93;2.63;;;7.60;89.30;;;;;;5074716;28;20031;-85
2021/03/27 09:43:51;;;;;;;13.70;2.43;;;7.60;88.70;;;;;;5075041;28;20035;-85
2021/03/27 09:46:58;;;;;;;10.73;2.50;;;7.60;88.10;;;;;;5075776;28;20029;-85
2021/03/27 09:49:33;;;;;;;14.33;2.30;;;7.60;87.00;;;;;;5037672;28;20064;-84
2021/03/27 09:51:59;;;;;;;14.83;2.87;;;7.70;85.20;;;;;;5057722;28;20032;-84
2021/03/27 09:54:47;;;;;;;16.47;2.13;;;7.70;83.90;;;;;;5060984;28;20032;-84
2021/03/27 09:57:25;;;;;;;10.70;2.10;;;7.70;83.20;;;;;;5061664;28;20025;-83
2021/03/27 10:00:17;;;;;;;12.63;2.20;;;7.70;83.50;;;;;;5061769;28;20033;-83
2021/03/27 10:02:51;;;;;;;12.53;2.43;;;7.70;82.90;;;;;;5061385;28;20029;-85
2021/03/27 10:05:17;;;;;;;8.53;1.50;;;7.80;84.20;;;;;;5080087;28;20022;-85
2021/03/27 10:07:57;;;;;;;4.80;1.30;;;7.50;88.80;;;;;;5061419;28;20097;-85
2021/03/27 10:10:22;;;;;;;4.77;1.40;;;7.00;90.20;;;;;;5078520;28;20537;-85
2021/03/27 10:13:09;;;;;;;6.30;1.33;;;6.70;91.40;;;;;;5060476;28;20119;-84
2021/03/27 10:15:39;;;;;;;8.90;1.50;;;6.60;92.00;;;;;;5060068;28;20025;-84
2021/03/27 10:18:26;;;;;;;5.97;1.30;;;6.30;92.40;;;;;;5060274;28;20362;-85
2021/03/27 10:20:57;;;;;;;4.70;1.30;;;6.20;92.60;;;;;;5059375;28;20389;-83
2021/03/27 10:23:36;;;;;;;7.27;2.00;;;6.00;92.90;;;;;;5077026;28;20036;-84
2021/03/27 10:26:29;;;;;;;9.97;2.30;;;5.80;93.90;;;;;;5078813;28;20124;-84
2021/03/27 10:29:09;;;;;;;7.10;2.23;;;5.60;95.00;;;;;;5079031;28;20026;-84
2021/03/27 10:31:47;;;;;;;6.27;2.00;;;5.50;94.60;;;;;;5078840;28;20033;-85
2021/03/27 10:34:38;;;;;;;6.63;2.30;;;5.50;94.80;;;;;;5077015;28;20085;-83
2021/03/27 10:37:15;;;;;;;8.53;2.37;;;5.50;94.70;;;;;;5077846;28;20029;-83
2021/03/27 10:39:59;;;;;;;7.83;2.33;;;5.50;94.30;;;;;;5060504;28;20092;-84
2021/03/27 10:42:54;;;;;;;8.97;2.37;;;5.60;94.60;;;;;;5079253;28;20036;-84
2021/03/27 10:45:31;;;;;;;11.63;3.03;;;5.80;95.00;;;;;;5042376;28;20123;-83
2021/03/27 10:48:06;;;;;;;12.30;3.67;;;5.90;94.90;;;;;;5060345;28;20021;-84
2021/03/27 10:50:50;;;;;;;11.27;2.60;;;6.10;95.10;;;;;;5078362;28;20028;-84
2021/03/27 10:53:25;;;;;;;5.93;2.20;;;6.30;94.20;;;;;;5077980;28;20066;-84
2021/03/27 10:56:06;;;;;;;7.70;2.30;;;6.40;93.90;;;;;;5078703;28;20708;-85
2021/03/27 10:58:58;;;;;;;9.97;2.50;;;6.50;94.20;;;;;;5062004;28;20017;-85
2021/03/27 11:01:38;;;;;;;8.17;2.57;;;6.70;94.00;;;;;;5057841;28;20124;-84
2021/03/27 11:04:25;;;;;;;7.93;2.70;;;6.90;94.00;;;;;;5058768;28;20025;-85
2021/03/27 11:07:24;;;;;;;10.90;2.47;;;7.00;93.20;;;;;;5059847;28;20410;-84
2021/03/27 11:10:10;;;;;;;8.00;3.07;;;7.20;92.50;;;;;;5058372;28;20112;-85
2021/03/27 11:12:55;;;;;;;6.00;2.10;;;7.20;91.40;;;;;;5060122;28;20164;-83
2021/03/27 11:15:26;;;;;;;10.40;3.10;;;7.40;90.60;;;;;;5076875;28;20051;-84
2021/03/27 11:18:29;;;;;;;12.27;3.20;;;7.50;91.10;;;;;;5076743;28;20020;-85
2021/03/27 11:21:08;;;;;;;11.47;2.90;;;7.50;90.70;;;;;;5078206;28;20024;-85
2021/03/27 11:24:01;;;;;;;11.02;2.30;;;7.50;88.80;;;;;;5059655;28;20024;-84
2021/03/27 11:27:00;;;;;;;9.80;2.33;;;7.50;86.00;;;;;;5060038;28;20037;-83
2021/03/27 11:29:37;;;;;;;6.23;2.30;;;7.50;87.30;;;;;;5058807;28;20025;-84
2021/03/27 11:32:33;;;;;;;7.07;3.00;;;7.60;88.20;;;;;;5058618;28;20111;-84
2021/03/27 11:35:14;;;;;;;8.47;2.47;;;7.70;86.70;;;;;;5074015;28;20024;-85
2021/03/27 11:38:01;;;;;;;10.47;2.70;;;7.70;86.60;;;;;;5061448;28;20025;-83
2021/03/27 11:40:53;;;;;;;13.73;3.87;;;7.80;86.40;;;;;;5060646;28;20017;-84
2021/03/27 11:43:38;;;;;;;10.37;3.07;;;7.70;84.10;;;;;;5076246;28;20027;-84
2021/03/27 11:46:21;;;;;;;11.23;2.87;;;7.70;84.00;;;;;;5058162;28;20044;-82
2021/03/27 11:48:54;;;;;;;8.20;2.53;;;7.80;82.70;;;;;;5058417;28;20021;-83
2021/03/27 11:51:42;;;;;;;9.60;3.17;;;7.80;82.70;;;;;;5075872;28;20485;-84
2021/03/27 11:54:14;;;;;;;10.47;2.63;;;7.90;83.70;;;;;;5076260;28;20044;-85
2021/03/27 11:56:58;;;;;;;6.57;2.03;;;8.10;81.60;;;;;;5059365;28;20039;-84
2021/03/27 12:02:34;;;;;;;8.47;2.43;;;8.30;78.90;;;;;;5077409;28;20394;-84
2021/03/27 12:05:25;;;;;;;8.07;2.23;;;8.50;78.30;;;;;;5059851;28;20021;-84
2021/03/27 12:08:04;;;;;;;8.73;2.50;;;8.50;77.10;;;;;;5080036;28;20077;-83
2021/03/27 12:10:51;;;;;;;11.63;2.47;;;8.60;76.60;;;;;;5061968;28;20021;-83
2021/03/27 12:13:42;;;;;;;9.67;3.20;;;8.70;74.30;;;;;;5060698;28;20025;-83
2021/03/27 12:16:23;;;;;;;12.10;2.70;;;8.80;74.00;;;;;;5076996;28;20067;-83
2021/03/27 12:19:24;;;;;;;7.43;2.17;;;9.00;73.30;;;;;;5078300;28;20036;-84
2021/03/27 12:22:04;;;;;;;7.47;2.87;;;9.10;74.10;;;;;;5054651;28;20052;-83
2021/03/27 12:24:30;;;;;;;7.77;2.33;;;9.00;71.40;;;;;;5079145;28;20025;-83
2021/03/27 12:27:26;;;;;;;7.77;2.00;;;9.00;72.00;;;;;;5060859;28;20484;-83
2021/03/27 12:30:07;;;;;;;13.20;2.60;;;8.90;72.40;;;;;;5060374;28;20024;-83
2021/03/27 12:32:46;;;;;;;10.53;2.93;;;8.90;72.00;;;;;;5062024;28;20028;-84
2021/03/27 12:35:35;;;;;;;9.00;2.77;;;8.90;74.50;;;;;;5079617;28;20035;-83
2021/03/27 12:38:13;;;;;;;;;;;8.90;74.40;;;;;;5062244;28;20031;-84
2021/03/27 12:40:51;;;;;;;8.77;2.47;;;8.90;72.70;;;;;;5060227;28;19905;-83
2021/03/27 12:43:24;;;;;;;7.43;1.90;;;8.90;72.20;;;;;;5060876;28;20046;-83
2021/03/27 12:45:58;;;;;;;10.37;2.20;;;8.90;72.10;;;;;;5079163;28;20021;-84
2021/03/27 12:48:47;;;;;;;10.17;2.07;;;9.00;71.50;;;;;;5078797;28;20024;-83
2021/03/27 12:51:41;;;;;;;13.63;2.35;;;9.10;71.20;;;;;;5036746;28;20067;-85
2021/03/27 12:54:26;;;;;;;6.77;1.63;;;9.20;67.00;;;;;;5055543;28;20029;-85
2021/03/27 12:56:54;;;;;;;4.30;1.10;;;9.30;59.30;;;;;;5056054;28;20020;-84
2021/03/27 12:59:43;;;;;;;9.07;1.70;;;9.40;59.00;;;;;;5058337;28;20032;-83
2021/03/27 13:02:23;;;;;;;5.57;1.40;;;9.40;59.80;;;;;;5058690;28;20032;-83
2021/03/27 13:05:08;;;;;;;6.60;1.20;;;9.40;59.90;;;;;;5058394;28;20028;-83
2021/03/27 13:07:47;;;;;;;9.17;1.60;;;9.40;60.20;;;;;;5058262;28;20027;-83
2021/03/27 13:10:46;;;;;;;6.68;1.33;;;9.50;60.60;;;;;;5074034;28;20024;-83
2021/03/27 13:13:30;;;;;;;6.65;1.52;;;9.60;61.00;;;;;;5058530;28;20028;-83
2021/03/27 13:16:33;;;;;;;9.77;1.90;;;9.60;56.40;;;;;;5058310;28;20055;-83
2021/03/27 13:19:08;;;;;;;9.53;1.20;;;9.70;56.20;;;;;;5059638;28;20021;-84
2021/03/27 13:21:55;;;;;;;9.07;1.30;;;9.60;53.60;;;;;;5060635;28;20111;-83
2021/03/27 13:24:33;;;;;;;5.87;1.00;;;9.60;53.30;;;;;;5061413;28;20044;-83
2021/03/27 13:27:11;;;;;;;5.97;1.07;;;9.50;52.90;;;;;;5059980;28;20082;-83
2021/03/27 13:29:46;;;;;;;4.70;1.10;;;9.50;53.50;;;;;;5062069;28;20021;-83
2021/03/27 13:32:17;;;;;;;8.93;1.07;;;9.50;53.60;;;;;;5061479;28;20024;-84
2021/03/27 13:35:08;;;;;;;6.10;1.40;;;9.40;54.00;;;;;;5060702;28;20039;-84
2021/03/27 13:37:52;;;;;;;5.37;1.07;;;9.60;54.90;;;;;;5061386;28;20029;-84
2021/03/27 13:40:27;;;;;;;5.07;0.90;;;9.70;55.60;;;;;;5060876;28;20056;-85
2021/03/27 13:43:08;;;;;;;2.93;1.10;;;9.60;55.50;;;;;;5061422;28;20020;-86
2021/03/27 13:46:04;;;;;;;5.03;1.10;;;9.60;54.80;;;;;;5080449;28;20052;-85
2021/03/27 13:48:29;;;;;;;6.27;1.33;;;9.50;54.70;;;;;;5080412;28;20039;-85
2021/03/27 13:51:02;;;;;;;4.90;1.07;;;9.40;54.60;;;;;;5060929;28;20025;-85
2021/03/27 13:53:48;;;;;;;7.23;1.17;;;9.30;56.30;;;;;;5079487;28;20051;-85
2021/03/27 13:56:47;;;;;;;6.23;1.20;;;9.30;53.20;;;;;;5060611;28;20119;-85
2021/03/27 13:59:32;;;;;;;5.10;0.90;;;9.30;52.80;;;;;;5060456;28;20090;-85
2021/03/27 14:02:13;;;;;;;6.90;1.13;;;9.40;54.80;;;;;;5061073;28;20554;-85
2021/03/27 14:04:45;;;;;;;6.20;1.30;;;9.40;57.00;;;;;;5060012;28;20024;-85
2021/03/27 14:07:33;;;;;;;5.40;1.40;;;9.40;55.80;;;;;;5078201;28;20036;-85
2021/03/27 14:10:07;;;;;;;5.43;1.60;;;9.40;56.70;;;;;;5076595;28;20078;-85
2021/03/27 14:12:45;;;;;;;4.97;1.13;;;9.40;56.80;;;;;;5078283;28;20028;-85
2021/03/27 14:15:18;;;;;;;7.17;1.50;;;9.50;57.50;;;;;;5060049;28;20048;-85
2021/03/27 14:18:18;;;;;;;4.13;1.10;;;9.60;58.20;;;;;;5060050;28;20190;-85
2021/03/27 14:20:54;;;;;;;7.60;1.50;;;9.50;57.70;;;;;;5059817;28;20393;-85
2021/03/27 14:23:28;;;;;;;5.20;1.20;;;9.50;57.70;;;;;;5078871;28;20099;-85